Hauptseite
METAR-TAF:

METAR-TAF

Flughäfen :

MoD Boscombe Down

Boscombe Down, England

Breite: 51-10N, Länge: 001-45W, Höhe: 124 m

Beobachtung

Neuester Wetterbericht von vor 1 Stunde und 14 Minuten, um 00:50 UTC
Wind 5 kt aus Nord/Nordost
Temperatur 3°C
Luftfeuchtigkeit 65%
Luftdruck 1032 hPa
Sichtweite 10 km oder mehr

METAR: EGDM 150050Z AUTO 03005KT 9999 NCD 03/M03 Q1032

Zeit: 03:04 (02:04 UTC)

Prognose

Neuester Wetterbericht von vor 12 Stunden und 44 Minuten, um 13:20 UTC
Gültige Prognose vom 14 um 15 UTC bis 14 um 18 UTC
Wind 7 kt aus Ost/Nordost
Sichtweite 10 km oder mehr
Aufgelockert bewölkt in der Höhe von 4500 ft

TAF: EGDM 141320Z 1415/1418 06007KT 9999 SCT045

Wetterbeobachtungen und Prognosen von mehr als 4000 Flughäfen (METAR und TAF Bericht).

Die verfügbaren Stationen werden durch gelbe und rote Markierungen auf der Karte dargestellt.

Führen Sie die Maus auf sie, um den Namen der Station zu sehen.

Darauf klicken, um die Beobachtung von Wetterbeobachtungen und Prognosen zu sehen.

Um die Karte zu ändern : klicken Sie auf den grünen Tasten mit einem schwarzen Kreuz Zum Vergrößern, auf den grünen Button mit einem Gedankenstrich zu verkleinern, oder auf die grünen Pfeile für benachbarte Karten.


METAR-TAF: